Orbital elements of UNISAT-2
| Launched | 19 December 2002 |
| Flight ended | – |
| Launch site | Tyuratam Missile and Space Center, Kazakhstan (Also known as Baikonur Cosmodrome) |
| Owner | Italy |
| NORAD ID | 27608 |
| Date fetched |
Epoch osculation |
Inc. [°] |
Ecc. | RA asc node [hr] |
Arg Peri. [°] |
Mean anom [°] |
Mean motion [rev/day] |
Abs. mag |
| Date fetched |
Epoch osculation |
Inc. [°] |
Ecc. | RA asc node [hr] |
Arg Peri. [°] |
Mean anom [°] |
Mean motion [rev/day] |
Abs. mag |
| 2026 May 08 17:57 | 2026 May 05 10:14:35 | 64.5502 | 0.00626 | 10.2662 | 260.2294 | 99.1741 | 14.84228 | 8.743 |
| 2026 May 07 17:58 | 2026 May 05 10:14:35 | 64.5502 | 0.00626 | 10.2662 | 260.2294 | 99.1741 | 14.84228 | 8.743 |
| 2026 May 06 17:57 | 2026 May 05 10:14:35 | 64.5502 | 0.00626 | 10.2662 | 260.2294 | 99.1741 | 14.84228 | 8.743 |
| 2026 May 05 17:57 | 2026 May 05 10:14:35 | 64.5502 | 0.00626 | 10.2662 | 260.2294 | 99.1741 | 14.84228 | 8.743 |
| 2026 May 04 17:57 | 2026 Apr 30 13:48:44 | 64.5507 | 0.00627 | 11.2686 | 261.0140 | 99.1741 | 14.84228 | 8.743 |
| 2026 May 03 17:57 | 2026 Apr 30 13:48:44 | 64.5507 | 0.00627 | 11.2686 | 261.0140 | 99.1741 | 14.84228 | 8.743 |
| 2026 May 02 17:57 | 2026 Apr 30 13:48:44 | 64.5507 | 0.00627 | 11.2686 | 261.0140 | 99.1741 | 14.84228 | 8.743 |
| 2026 May 01 17:56 | 2026 Apr 30 13:48:44 | 64.5507 | 0.00627 | 11.2686 | 261.0140 | 99.1741 | 14.84228 | 8.743 |
| 2026 Apr 30 17:56 | 2026 Apr 30 13:48:44 | 64.5507 | 0.00627 | 11.2686 | 261.0140 | 99.1741 | 14.84228 | 8.743 |
| 2026 Apr 29 17:57 | 2026 Apr 24 12:16:22 | 64.5516 | 0.00628 | 12.5217 | 262.0000 | 99.1741 | 14.84228 | 8.743 |
| 2026 Apr 28 17:56 | 2026 Apr 24 12:16:22 | 64.5516 | 0.00628 | 12.5217 | 262.0000 | 99.1741 | 14.84228 | 8.743 |
| 2026 Apr 27 17:58 | 2026 Apr 24 12:16:22 | 64.5516 | 0.00628 | 12.5217 | 262.0000 | 99.1741 | 14.84228 | 8.743 |
| 2026 Apr 26 17:58 | 2026 Apr 24 12:16:22 | 64.5516 | 0.00628 | 12.5217 | 262.0000 | 99.1741 | 14.84228 | 8.743 |
| 2026 Apr 25 17:58 | 2026 Apr 24 12:16:22 | 64.5516 | 0.00628 | 12.5217 | 262.0000 | 99.1741 | 14.84228 | 8.743 |
| 2026 Apr 24 17:59 | 2026 Apr 24 12:16:22 | 64.5516 | 0.00628 | 12.5217 | 262.0000 | 99.1741 | 14.84228 | 8.743 |
| 2026 Apr 23 17:57 | 2026 Apr 19 06:08:15 | 64.5520 | 0.00629 | 13.6076 | 262.8463 | 99.1741 | 14.84228 | 8.743 |
| 2026 Apr 22 17:57 | 2026 Apr 19 06:08:15 | 64.5520 | 0.00629 | 13.6076 | 262.8463 | 99.1741 | 14.84228 | 8.743 |
| 2026 Apr 21 17:57 | 2026 Apr 19 06:08:15 | 64.5520 | 0.00629 | 13.6076 | 262.8463 | 99.1741 | 14.84228 | 8.743 |
| 2026 Apr 20 17:57 | 2026 Apr 19 06:08:15 | 64.5520 | 0.00629 | 13.6076 | 262.8463 | 99.1741 | 14.84228 | 8.743 |
| 2026 Apr 19 17:58 | 2026 Apr 19 06:08:15 | 64.5520 | 0.00629 | 13.6076 | 262.8463 | 99.1741 | 14.84228 | 8.743 |
| 2026 Apr 18 17:56 | 2026 Apr 13 01:21:43 | 64.5520 | 0.00630 | 14.8885 | 263.8408 | 99.1741 | 14.84228 | 8.743 |
| 2026 Apr 16 17:57 | 2026 Apr 13 01:21:43 | 64.5520 | 0.00630 | 14.8885 | 263.8408 | 99.1741 | 14.84228 | 8.743 |
| 2026 Apr 14 17:57 | 2026 Apr 13 01:21:43 | 64.5520 | 0.00630 | 14.8885 | 263.8408 | 99.1741 | 14.84228 | 8.743 |
| 2026 Apr 13 17:57 | 2026 Apr 13 01:21:43 | 64.5520 | 0.00630 | 14.8885 | 263.8408 | 99.1741 | 14.84228 | 8.743 |
| 2026 Apr 12 17:57 | 2026 Apr 08 14:37:52 | 64.5516 | 0.00631 | 15.8074 | 264.5142 | 99.1741 | 14.84228 | 8.743 |
| 2026 Apr 11 17:57 | 2026 Apr 08 14:37:52 | 64.5516 | 0.00631 | 15.8074 | 264.5142 | 99.1741 | 14.84228 | 8.743 |